createdAt,value
2017-12-21T00:02:26.341Z,100.00
2017-12-21T00:04:54.015Z,100.00
2017-12-21T00:07:21.682Z,100.00
2017-12-21T00:09:49.327Z,100.00
2017-12-21T00:12:17.113Z,100.00
2017-12-21T00:14:44.747Z,100.00
2017-12-21T00:17:12.436Z,100.00
2017-12-21T00:19:40.077Z,100.00
2017-12-21T00:22:07.708Z,100.00
2017-12-21T00:24:35.417Z,100.00
2017-12-21T00:27:03.097Z,100.00
2017-12-21T00:29:30.789Z,100.00
2017-12-21T00:31:58.430Z,100.00
2017-12-21T00:34:26.134Z,100.00
2017-12-21T00:36:53.834Z,100.00
2017-12-21T00:39:21.507Z,100.00
2017-12-21T00:41:49.147Z,100.00
2017-12-21T00:44:16.840Z,100.00
2017-12-21T00:46:44.717Z,100.00
2017-12-21T00:49:12.406Z,100.00
2017-12-21T00:51:40.032Z,100.00
2017-12-21T00:54:07.726Z,100.00
2017-12-21T00:56:35.414Z,100.00
2017-12-21T00:59:03.117Z,100.00
2017-12-21T01:01:30.798Z,100.00
2017-12-21T01:03:58.473Z,100.00
2017-12-21T01:06:26.603Z,100.00
2017-12-21T01:08:54.352Z,100.00
2017-12-21T01:11:22.003Z,100.00
2017-12-21T01:13:49.743Z,100.00
2017-12-21T01:16:17.385Z,100.00
2017-12-21T01:18:45.131Z,100.00
2017-12-21T01:21:12.824Z,100.00
2017-12-21T01:23:40.575Z,100.00
2017-12-21T01:26:08.589Z,100.00
2017-12-21T01:28:36.342Z,100.00
2017-12-21T01:31:04.037Z,100.00
2017-12-21T01:33:31.703Z,100.00
2017-12-21T01:35:59.398Z,100.00
2017-12-21T01:38:27.140Z,100.00
2017-12-21T01:40:54.828Z,100.00
2017-12-21T01:43:22.558Z,100.00
2017-12-21T01:45:50.257Z,100.00
2017-12-21T01:48:17.998Z,100.00
2017-12-21T01:50:45.632Z,100.00
2017-12-21T01:53:13.368Z,100.00
2017-12-21T01:55:41.069Z,100.00
2017-12-21T01:58:08.819Z,100.00
2017-12-21T02:00:36.864Z,100.00
2017-12-21T02:03:04.579Z,100.00
2017-12-21T02:05:32.246Z,100.00
2017-12-21T02:07:59.964Z,100.00
2017-12-21T02:10:27.658Z,100.00
2017-12-21T02:12:55.296Z,100.00
2017-12-21T02:15:23.035Z,100.00
2017-12-21T02:17:50.740Z,100.00
2017-12-21T02:20:18.418Z,100.00
2017-12-21T02:22:46.174Z,100.00
2017-12-21T02:25:13.985Z,100.00
2017-12-21T02:27:41.680Z,100.00
2017-12-21T02:30:09.457Z,100.00
2017-12-21T02:32:37.162Z,100.00
2017-12-21T02:35:04.863Z,100.00
2017-12-21T02:37:32.512Z,100.00
2017-12-21T02:40:00.253Z,100.00
2017-12-21T02:42:27.952Z,100.00
2017-12-21T02:44:55.638Z,100.00
2017-12-21T02:47:23.344Z,100.00
2017-12-21T02:49:51.031Z,100.00
2017-12-21T02:52:18.731Z,100.00
2017-12-21T02:54:46.489Z,100.00
2017-12-21T02:57:14.242Z,100.00
2017-12-21T02:59:42.060Z,100.00
2017-12-21T03:02:09.795Z,100.00
2017-12-21T03:04:37.557Z,100.00
2017-12-21T03:07:05.204Z,100.00
2017-12-21T03:09:32.981Z,100.00
2017-12-21T03:12:00.702Z,100.00
2017-12-21T03:14:28.382Z,100.00
2017-12-21T03:16:56.096Z,100.00
2017-12-21T03:19:23.874Z,100.00
2017-12-21T03:21:51.592Z,100.00
2017-12-21T03:24:19.328Z,100.00
2017-12-21T03:26:47.021Z,100.00
2017-12-21T03:29:14.747Z,100.00
2017-12-21T03:31:42.752Z,100.00
2017-12-21T03:34:10.495Z,100.00
2017-12-21T03:36:38.194Z,100.00
2017-12-21T03:39:05.977Z,100.00
2017-12-21T03:41:33.667Z,100.00
2017-12-21T03:44:01.376Z,100.00
2017-12-21T03:46:29.123Z,100.00
2017-12-21T03:48:57.164Z,100.00
2017-12-21T03:51:24.902Z,100.00
2017-12-21T03:53:52.545Z,100.00
2017-12-21T03:56:20.346Z,100.00
2017-12-21T03:58:48.185Z,100.00
2017-12-21T04:01:15.979Z,100.00
2017-12-21T04:03:44.075Z,100.00
2017-12-21T04:06:11.737Z,100.00
2017-12-21T04:08:39.712Z,100.00
2017-12-21T04:11:07.476Z,100.00
2017-12-21T04:13:35.169Z,100.00
2017-12-21T04:16:02.828Z,100.00
2017-12-21T04:18:30.533Z,100.00
2017-12-21T04:20:58.215Z,100.00
2017-12-21T04:23:25.916Z,100.00
2017-12-21T04:25:53.645Z,100.00
2017-12-21T04:28:21.328Z,100.00
2017-12-21T04:30:49.001Z,100.00
2017-12-21T04:33:16.656Z,100.00
2017-12-21T04:35:44.399Z,100.00
2017-12-21T04:38:12.093Z,100.00
2017-12-21T04:40:39.817Z,100.00
2017-12-21T04:43:07.509Z,100.00
2017-12-21T04:45:35.241Z,100.00
2017-12-21T04:48:02.957Z,100.00
2017-12-21T04:50:30.628Z,100.00
2017-12-21T04:52:58.249Z,100.00
2017-12-21T04:55:25.925Z,100.00
2017-12-21T04:57:53.635Z,100.00
2017-12-21T05:00:21.441Z,100.00
2017-12-21T05:02:49.148Z,100.00
2017-12-21T05:05:16.826Z,100.00
2017-12-21T05:07:44.453Z,100.00
2017-12-21T05:10:12.210Z,100.00
2017-12-21T05:12:39.926Z,100.00
2017-12-21T05:15:07.603Z,100.00
2017-12-21T05:17:35.320Z,100.00
2017-12-21T05:20:03.007Z,100.00
2017-12-21T05:22:30.689Z,100.00
2017-12-21T05:24:58.414Z,100.00
2017-12-21T05:27:26.177Z,100.00
2017-12-21T05:29:53.918Z,100.00
2017-12-21T05:32:21.655Z,100.00
2017-12-21T05:34:49.314Z,100.00
2017-12-21T05:37:16.977Z,100.00
2017-12-21T05:39:44.633Z,100.00
2017-12-21T05:42:12.398Z,100.00
2017-12-21T05:44:40.054Z,100.00
2017-12-21T05:47:07.825Z,100.00
2017-12-21T05:49:35.532Z,100.00
2017-12-21T05:52:03.215Z,100.00
2017-12-21T05:54:30.952Z,100.00
2017-12-21T05:56:58.697Z,100.00
2017-12-21T05:59:26.501Z,100.00
2017-12-21T06:01:54.171Z,100.00
2017-12-21T06:04:21.845Z,100.00
2017-12-21T06:06:49.516Z,100.00
2017-12-21T06:09:17.185Z,100.00
2017-12-21T06:11:44.875Z,100.00
2017-12-21T06:14:12.549Z,100.00
2017-12-21T06:16:40.258Z,100.00
2017-12-21T06:19:07.960Z,100.00
2017-12-21T06:21:35.654Z,100.00
2017-12-21T06:24:03.313Z,100.00
2017-12-21T06:26:30.993Z,100.00
2017-12-21T06:28:58.655Z,100.00
2017-12-21T06:31:26.405Z,100.00
2017-12-21T06:33:54.167Z,100.00
2017-12-21T06:36:21.929Z,100.00
2017-12-21T06:38:49.663Z,100.00
2017-12-21T06:41:17.335Z,100.00
2017-12-21T06:43:45.117Z,100.00
2017-12-21T06:46:12.805Z,100.00
2017-12-21T06:48:40.557Z,100.00
2017-12-21T06:51:08.241Z,100.00
2017-12-21T06:53:36.015Z,100.00
2017-12-21T06:56:03.763Z,100.00
2017-12-21T06:58:31.499Z,100.00
2017-12-21T07:00:59.281Z,100.00
2017-12-21T07:03:27.030Z,100.00
2017-12-21T07:05:54.765Z,100.00
2017-12-21T07:08:22.535Z,100.00
2017-12-21T07:10:50.264Z,100.00
2017-12-21T07:13:18.066Z,100.00
2017-12-21T07:15:45.849Z,100.00
2017-12-21T07:18:13.608Z,100.00
2017-12-21T07:20:41.344Z,100.00
2017-12-21T07:23:09.048Z,100.00
2017-12-21T07:25:36.761Z,100.00
2017-12-21T07:28:04.449Z,100.00
2017-12-21T07:30:32.114Z,100.00
2017-12-21T07:32:59.858Z,100.00
2017-12-21T07:35:27.622Z,100.00
2017-12-21T07:37:55.369Z,100.00
2017-12-21T07:40:23.120Z,100.00
2017-12-21T07:42:50.805Z,100.00
2017-12-21T07:45:18.424Z,100.00
2017-12-21T07:47:46.168Z,100.00
2017-12-21T07:50:13.845Z,100.00
2017-12-21T07:52:41.592Z,100.00
2017-12-21T07:55:09.222Z,100.00
2017-12-21T07:57:36.896Z,100.00
2017-12-21T08:00:04.538Z,100.00
2017-12-21T08:02:32.212Z,100.00
2017-12-21T08:04:59.952Z,100.00
2017-12-21T08:07:27.625Z,100.00
2017-12-21T08:09:55.302Z,100.00
2017-12-21T08:12:22.978Z,100.00
2017-12-21T08:14:50.602Z,100.00
2017-12-21T08:17:18.280Z,100.00
2017-12-21T08:19:45.911Z,100.00
2017-12-21T08:22:13.652Z,100.00
2017-12-21T08:24:41.365Z,100.00
2017-12-21T08:27:09.074Z,100.00
2017-12-21T08:29:36.766Z,100.00
2017-12-21T08:32:04.453Z,100.00
2017-12-21T08:34:32.142Z,100.00
2017-12-21T08:36:59.841Z,100.00
2017-12-21T08:39:27.487Z,100.00
2017-12-21T08:41:55.183Z,100.00
2017-12-21T08:44:23.082Z,100.00
2017-12-21T08:46:50.730Z,100.00
2017-12-21T08:49:18.410Z,100.00
2017-12-21T08:51:46.046Z,100.00
2017-12-21T08:54:13.795Z,100.00
2017-12-21T08:56:41.550Z,100.00
2017-12-21T08:59:09.211Z,100.00
2017-12-21T09:01:36.872Z,100.00
2017-12-21T09:04:04.597Z,100.00
2017-12-21T09:06:32.266Z,100.00
2017-12-21T09:09:00.036Z,100.00
2017-12-21T09:11:28.061Z,100.00
2017-12-21T09:13:55.885Z,100.00
2017-12-21T09:16:23.666Z,100.00
2017-12-21T09:18:51.430Z,100.00
2017-12-21T09:21:19.103Z,100.00
2017-12-21T09:23:46.880Z,100.00
2017-12-21T09:26:14.606Z,100.00
2017-12-21T09:28:42.371Z,99.52
2017-12-21T09:31:10.060Z,99.61
2017-12-21T09:33:37.735Z,99.70
2017-12-21T09:36:05.428Z,99.51
2017-12-21T09:38:33.123Z,98.68
2017-12-21T09:41:00.817Z,98.88
2017-12-21T09:43:28.558Z,98.99
2017-12-21T09:45:56.265Z,98.72
2017-12-21T09:48:23.938Z,98.66
2017-12-21T09:50:51.660Z,99.08
2017-12-21T09:53:19.415Z,99.07
2017-12-21T09:55:47.112Z,98.80
2017-12-21T09:58:14.784Z,98.74
2017-12-21T10:00:42.944Z,98.67
2017-12-21T10:03:10.718Z,98.80
2017-12-21T10:05:38.430Z,99.26
2017-12-21T10:08:06.182Z,99.80
2017-12-21T10:10:33.895Z,100.00
2017-12-21T10:13:01.658Z,100.00
2017-12-21T10:15:29.364Z,99.27
2017-12-21T10:17:57.102Z,99.31
2017-12-21T10:20:24.833Z,99.24
2017-12-21T10:22:52.518Z,99.53
2017-12-21T10:25:20.290Z,99.69
2017-12-21T10:27:48.006Z,100.00
2017-12-21T10:30:15.764Z,100.00
2017-12-21T10:32:43.504Z,100.00
2017-12-21T10:35:11.269Z,100.00
2017-12-21T10:37:39.018Z,100.00
2017-12-21T10:40:06.832Z,100.00
2017-12-21T10:42:34.531Z,100.00
2017-12-21T10:45:02.220Z,100.00
2017-12-21T10:47:29.970Z,99.32
2017-12-21T10:49:57.696Z,98.45
2017-12-21T10:52:25.564Z,98.98
2017-12-21T10:54:53.306Z,98.34
2017-12-21T10:57:20.937Z,98.96
2017-12-21T10:59:48.616Z,98.98
2017-12-21T11:02:16.262Z,97.73
2017-12-21T11:04:43.945Z,97.41
2017-12-21T11:07:11.555Z,97.44
2017-12-21T11:09:39.236Z,96.60
2017-12-21T11:12:06.863Z,96.95
2017-12-21T11:14:34.545Z,96.92
2017-12-21T11:17:02.212Z,97.68
2017-12-21T11:19:29.912Z,97.43
2017-12-21T11:21:57.552Z,96.77
2017-12-21T11:24:25.222Z,97.12
2017-12-21T11:26:52.883Z,97.82
2017-12-21T11:29:20.561Z,97.31
2017-12-21T11:31:48.262Z,96.89
2017-12-21T11:34:15.969Z,97.16
2017-12-21T11:36:43.607Z,96.36
2017-12-21T11:39:11.312Z,96.49
2017-12-21T11:41:38.946Z,96.18
2017-12-21T11:44:06.625Z,95.92
2017-12-21T11:46:34.270Z,95.71
2017-12-21T11:49:01.957Z,96.41
2017-12-21T11:51:29.624Z,96.79
2017-12-21T11:53:57.409Z,96.71
2017-12-21T11:56:25.041Z,96.86
2017-12-21T11:58:52.806Z,96.68
2017-12-21T12:01:20.441Z,96.92
2017-12-21T12:03:48.101Z,96.50
2017-12-21T12:06:15.936Z,95.61
2017-12-21T12:08:43.632Z,94.34
2017-12-21T12:11:11.387Z,95.06
2017-12-21T12:13:39.088Z,94.97
2017-12-21T12:16:06.832Z,94.82
2017-12-21T12:18:34.521Z,94.32
2017-12-21T12:21:02.264Z,94.32
2017-12-21T12:23:29.907Z,94.32
2017-12-21T12:25:57.591Z,94.64
2017-12-21T12:28:25.279Z,94.20
2017-12-21T12:30:53.032Z,93.19
2017-12-21T12:33:20.749Z,94.07
2017-12-21T12:35:48.524Z,93.89
2017-12-21T12:38:16.208Z,94.50
2017-12-21T12:40:43.980Z,94.90
2017-12-21T12:43:11.611Z,95.30
2017-12-21T12:45:39.416Z,95.15
2017-12-21T12:48:07.198Z,94.57
2017-12-21T12:50:34.917Z,94.08
2017-12-21T12:53:02.604Z,94.80
2017-12-21T12:55:30.288Z,94.80
2017-12-21T12:57:57.972Z,94.78
2017-12-21T13:00:25.677Z,94.73
2017-12-21T13:02:53.443Z,95.47
2017-12-21T13:05:21.128Z,95.84
2017-12-21T13:07:48.902Z,95.66
2017-12-21T13:10:16.660Z,95.76
2017-12-21T13:12:44.342Z,93.83
2017-12-21T13:15:12.125Z,94.12
2017-12-21T13:17:39.856Z,93.90
2017-12-21T13:20:07.652Z,94.35
2017-12-21T13:22:35.394Z,94.92
2017-12-21T13:25:03.147Z,95.48
2017-12-21T13:27:30.942Z,95.94
2017-12-21T13:29:58.710Z,94.52
2017-12-21T13:32:26.437Z,94.33
2017-12-21T13:34:54.139Z,93.76
2017-12-21T13:37:21.888Z,93.12
2017-12-21T13:39:49.645Z,93.51
2017-12-21T13:42:17.389Z,93.84
2017-12-21T13:44:45.112Z,94.22
2017-12-21T13:47:12.774Z,94.49
2017-12-21T13:49:40.468Z,94.29
2017-12-21T13:52:08.203Z,94.74
2017-12-21T13:54:36.129Z,94.05
2017-12-21T13:57:03.870Z,94.08
2017-12-21T13:59:31.594Z,94.09
2017-12-21T14:01:59.418Z,93.69
2017-12-21T14:04:27.167Z,93.82
2017-12-21T14:06:54.903Z,94.47
2017-12-21T14:09:22.706Z,94.23
2017-12-21T14:11:50.478Z,94.60
2017-12-21T14:14:18.226Z,94.58
2017-12-21T14:16:45.897Z,94.32
2017-12-21T14:19:13.582Z,94.04
2017-12-21T14:21:41.333Z,94.59
2017-12-21T14:24:09.010Z,94.49
2017-12-21T14:26:36.759Z,94.75
2017-12-21T14:29:04.453Z,94.50
2017-12-21T14:31:32.144Z,94.83
2017-12-21T14:33:59.944Z,95.01
2017-12-21T14:36:27.642Z,95.17
2017-12-21T14:38:55.392Z,95.46
2017-12-21T14:41:23.136Z,95.62
2017-12-21T14:43:50.845Z,95.83
2017-12-21T14:46:18.586Z,95.47
2017-12-21T14:48:46.278Z,95.73
2017-12-21T14:51:14.003Z,96.05
2017-12-21T14:53:41.730Z,96.08
2017-12-21T14:56:09.458Z,96.36
2017-12-21T14:58:37.145Z,96.59
2017-12-21T15:01:04.922Z,96.79
2017-12-21T15:03:32.610Z,96.99
2017-12-21T15:06:00.360Z,97.13
2017-12-21T15:08:28.058Z,97.12
2017-12-21T15:10:55.801Z,97.20
2017-12-21T15:13:23.546Z,97.30
2017-12-21T15:15:51.226Z,97.45
2017-12-21T15:18:18.932Z,97.61
2017-12-21T15:20:46.689Z,97.83
2017-12-21T15:23:14.401Z,98.01
2017-12-21T15:25:42.103Z,98.19
2017-12-21T15:28:09.863Z,98.32
2017-12-21T15:30:37.571Z,98.30
2017-12-21T15:33:05.301Z,98.34
2017-12-21T15:35:32.999Z,98.39
2017-12-21T15:38:00.719Z,98.56
2017-12-21T15:40:28.396Z,98.89
2017-12-21T15:42:56.140Z,99.00
2017-12-21T15:45:23.763Z,99.15
2017-12-21T15:47:51.443Z,99.22
2017-12-21T15:50:19.099Z,99.41
2017-12-21T15:52:46.768Z,99.69
2017-12-21T15:55:14.397Z,100.00
2017-12-21T15:57:42.078Z,100.00
2017-12-21T16:00:09.735Z,100.00
2017-12-21T16:02:37.397Z,99.91
2017-12-21T16:05:06.114Z,99.77
2017-12-21T16:07:33.800Z,99.66
2017-12-21T16:10:01.445Z,99.69
2017-12-21T16:12:29.141Z,99.66
2017-12-21T16:14:56.984Z,99.68
2017-12-21T16:17:24.672Z,99.66
2017-12-21T16:19:52.294Z,99.79
2017-12-21T16:22:20.027Z,99.97
2017-12-21T16:24:47.656Z,100.00
2017-12-21T16:27:15.317Z,100.00
2017-12-21T16:29:42.947Z,100.00
2017-12-21T16:32:10.609Z,100.00
2017-12-21T16:34:38.252Z,100.00
2017-12-21T16:37:06.000Z,100.00
2017-12-21T16:39:33.712Z,100.00
2017-12-21T16:42:01.463Z,100.00
2017-12-21T16:44:29.164Z,100.00
2017-12-21T16:46:56.840Z,100.00
2017-12-21T16:49:24.497Z,100.00
2017-12-21T16:51:53.227Z,100.00
2017-12-21T16:54:22.746Z,100.00
2017-12-21T16:56:50.574Z,100.00
2017-12-21T16:59:18.245Z,100.00
2017-12-21T17:01:45.912Z,100.00
2017-12-21T17:04:13.555Z,100.00
2017-12-21T17:06:41.205Z,100.00
2017-12-21T17:09:08.893Z,100.00
2017-12-21T17:11:36.532Z,100.00
2017-12-21T17:14:04.210Z,100.00
2017-12-21T17:16:31.876Z,100.00
2017-12-21T17:18:59.656Z,100.00
2017-12-21T17:21:27.357Z,100.00
2017-12-21T17:23:55.015Z,100.00
2017-12-21T17:26:22.783Z,100.00
2017-12-21T17:28:50.620Z,100.00
2017-12-21T17:31:18.334Z,100.00
2017-12-21T17:33:46.054Z,100.00
2017-12-21T17:36:13.751Z,100.00
2017-12-21T17:38:41.422Z,100.00
2017-12-21T17:41:09.055Z,100.00
2017-12-21T17:43:36.791Z,100.00
2017-12-21T17:46:04.465Z,100.00
2017-12-21T17:48:32.144Z,100.00
2017-12-21T17:50:59.851Z,100.00
2017-12-21T17:53:27.590Z,100.00
2017-12-21T17:55:55.240Z,100.00
2017-12-21T17:58:22.920Z,100.00
2017-12-21T18:00:50.674Z,100.00
2017-12-21T18:03:18.396Z,100.00
2017-12-21T18:05:46.115Z,100.00
2017-12-21T18:08:13.895Z,100.00
2017-12-21T18:10:41.627Z,100.00
2017-12-21T18:13:09.413Z,100.00
2017-12-21T18:15:37.124Z,100.00
2017-12-21T18:18:04.906Z,100.00
2017-12-21T18:20:32.570Z,100.00
2017-12-21T18:23:00.258Z,100.00
2017-12-21T18:25:28.009Z,100.00
2017-12-21T18:27:55.741Z,100.00
2017-12-21T18:30:23.503Z,100.00
2017-12-21T18:32:51.249Z,100.00
2017-12-21T18:35:19.001Z,100.00
2017-12-21T18:37:46.745Z,100.00
2017-12-21T18:40:14.475Z,100.00
2017-12-21T18:42:42.223Z,100.00
2017-12-21T18:45:09.954Z,100.00
2017-12-21T18:47:37.652Z,99.90
2017-12-21T18:50:05.379Z,99.91
2017-12-21T18:52:33.111Z,100.00
2017-12-21T18:55:00.839Z,100.00
2017-12-21T18:57:28.481Z,100.00
2017-12-21T18:59:56.261Z,100.00
2017-12-21T19:02:23.900Z,100.00
2017-12-21T19:04:51.640Z,100.00
2017-12-21T19:07:19.336Z,100.00
2017-12-21T19:09:47.032Z,100.00
2017-12-21T19:12:14.721Z,100.00
2017-12-21T19:14:42.435Z,100.00
2017-12-21T19:17:10.073Z,100.00
2017-12-21T19:19:38.943Z,100.00
2017-12-21T19:22:06.690Z,100.00
2017-12-21T19:24:34.378Z,100.00
2017-12-21T19:27:02.428Z,100.00
2017-12-21T19:29:30.130Z,100.00
2017-12-21T19:32:14.318Z,100.00
2017-12-21T19:34:42.077Z,100.00
2017-12-21T19:37:09.764Z,100.00
2017-12-21T19:39:37.482Z,100.00
2017-12-21T19:42:05.210Z,100.00
2017-12-21T19:44:32.878Z,100.00
2017-12-21T19:47:00.542Z,100.00
2017-12-21T19:49:28.279Z,100.00
2017-12-21T19:51:55.918Z,100.00
2017-12-21T19:54:23.597Z,100.00
2017-12-21T19:56:51.260Z,100.00
2017-12-21T19:59:19.094Z,100.00
2017-12-21T20:01:46.790Z,100.00
2017-12-21T20:04:14.568Z,100.00
2017-12-21T20:06:42.316Z,100.00
2017-12-21T20:09:10.128Z,100.00
2017-12-21T20:11:37.899Z,100.00
2017-12-21T20:14:05.689Z,100.00
2017-12-21T20:16:33.364Z,100.00
2017-12-21T20:19:01.159Z,100.00
2017-12-21T20:21:28.920Z,100.00
2017-12-21T20:23:56.662Z,100.00
2017-12-21T20:26:24.504Z,100.00
2017-12-21T20:28:52.187Z,100.00
2017-12-21T20:31:19.859Z,100.00
2017-12-21T20:33:47.541Z,100.00
2017-12-21T20:36:15.159Z,100.00
2017-12-21T20:38:42.850Z,100.00
2017-12-21T20:41:10.585Z,100.00
2017-12-21T20:43:38.237Z,100.00
2017-12-21T20:46:06.156Z,100.00
2017-12-21T20:48:33.792Z,100.00
2017-12-21T20:51:01.532Z,100.00
2017-12-21T20:53:29.218Z,100.00
2017-12-21T20:55:56.964Z,100.00
2017-12-21T20:58:35.161Z,100.00
2017-12-21T21:01:20.340Z,100.00
2017-12-21T21:03:49.123Z,100.00
2017-12-21T21:06:26.749Z,100.00
2017-12-21T21:08:54.959Z,100.00
2017-12-21T21:11:22.684Z,100.00
2017-12-21T21:13:50.375Z,100.00
2017-12-21T21:16:18.146Z,100.00
2017-12-21T21:18:45.905Z,100.00
2017-12-21T21:21:13.668Z,100.00
2017-12-21T21:23:41.461Z,100.00
2017-12-21T21:26:09.268Z,100.00
2017-12-21T21:28:37.137Z,100.00
2017-12-21T21:31:04.829Z,100.00
2017-12-21T21:33:32.539Z,100.00
2017-12-21T21:36:00.415Z,100.00
2017-12-21T21:38:28.168Z,100.00
2017-12-21T21:40:55.907Z,100.00
2017-12-21T21:43:23.596Z,100.00
2017-12-21T21:45:51.408Z,100.00
2017-12-21T21:48:19.110Z,100.00
2017-12-21T21:50:46.843Z,100.00
2017-12-21T21:53:14.507Z,100.00
2017-12-21T21:55:42.267Z,100.00
2017-12-21T21:58:10.024Z,100.00
2017-12-21T22:00:37.767Z,100.00
2017-12-21T22:03:05.487Z,100.00
2017-12-21T22:05:33.287Z,100.00
2017-12-21T22:08:00.965Z,100.00
2017-12-21T22:10:28.788Z,100.00
2017-12-21T22:12:56.465Z,100.00
2017-12-21T22:15:24.205Z,100.00
2017-12-21T22:17:51.949Z,100.00
2017-12-21T22:20:19.684Z,100.00
2017-12-21T22:22:47.427Z,100.00
2017-12-21T22:25:15.156Z,100.00
2017-12-21T22:27:42.834Z,100.00
2017-12-21T22:30:10.555Z,100.00
2017-12-21T22:32:38.297Z,100.00
2017-12-21T22:35:06.038Z,100.00
2017-12-21T22:37:33.763Z,100.00
2017-12-21T22:40:01.493Z,100.00
2017-12-21T22:42:29.159Z,100.00
2017-12-21T22:44:56.925Z,100.00
2017-12-21T22:47:24.607Z,100.00
2017-12-21T22:49:52.338Z,100.00
2017-12-21T22:52:20.078Z,100.00
2017-12-21T22:54:47.706Z,100.00
2017-12-21T22:57:15.429Z,100.00
2017-12-21T22:59:43.095Z,100.00
2017-12-21T23:02:10.812Z,100.00
2017-12-21T23:04:38.480Z,100.00
2017-12-21T23:07:06.209Z,100.00
2017-12-21T23:09:34.763Z,100.00
2017-12-21T23:12:02.475Z,100.00
2017-12-21T23:14:30.143Z,100.00
2017-12-21T23:16:57.865Z,100.00
2017-12-21T23:19:25.567Z,100.00
2017-12-21T23:21:53.301Z,100.00
2017-12-21T23:24:20.992Z,100.00
2017-12-21T23:26:48.697Z,100.00
2017-12-21T23:29:16.323Z,100.00
2017-12-21T23:31:44.064Z,100.00
2017-12-21T23:34:11.720Z,100.00
2017-12-21T23:36:39.405Z,100.00
2017-12-21T23:39:07.087Z,100.00
2017-12-21T23:41:34.745Z,100.00
2017-12-21T23:44:02.448Z,100.00
2017-12-21T23:46:30.067Z,100.00
2017-12-21T23:48:57.772Z,100.00
2017-12-21T23:51:25.439Z,100.00
2017-12-21T23:53:53.127Z,100.00
2017-12-21T23:56:20.876Z,100.00
2017-12-21T23:58:48.552Z,100.00
